sensor_id;sensor_type;location;lat;lon;timestamp;P1;durP1;ratioP1;P2;durP2;ratioP2
1593;SDS011;790;47.000;16.084;2022-11-02T00:00:21;14.40;;;11.93;;
1593;SDS011;790;47.000;16.084;2022-11-02T00:02:49;12.07;;;10.73;;
1593;SDS011;790;47.000;16.084;2022-11-02T00:05:16;11.40;;;10.20;;
1593;SDS011;790;47.000;16.084;2022-11-02T00:07:49;13.37;;;11.10;;
1593;SDS011;790;47.000;16.084;2022-11-02T00:10:16;11.63;;;10.43;;
1593;SDS011;790;47.000;16.084;2022-11-02T00:12:44;13.03;;;11.63;;
1593;SDS011;790;47.000;16.084;2022-11-02T00:15:11;13.23;;;11.93;;
1593;SDS011;790;47.000;16.084;2022-11-02T00:17:39;12.98;;;11.68;;
1593;SDS011;790;47.000;16.084;2022-11-02T00:20:08;12.43;;;11.33;;
1593;SDS011;790;47.000;16.084;2022-11-02T00:22:37;11.63;;;10.43;;
1593;SDS011;790;47.000;16.084;2022-11-02T00:25:08;11.17;;;10.13;;
1593;SDS011;790;47.000;16.084;2022-11-02T00:27:37;12.50;;;11.27;;
1593;SDS011;790;47.000;16.084;2022-11-02T00:30:06;12.43;;;11.13;;
1593;SDS011;790;47.000;16.084;2022-11-02T00:32:34;12.40;;;11.20;;
1593;SDS011;790;47.000;16.084;2022-11-02T00:35:01;12.97;;;11.57;;
1593;SDS011;790;47.000;16.084;2022-11-02T00:37:29;14.17;;;12.30;;
1593;SDS011;790;47.000;16.084;2022-11-02T00:39:56;14.00;;;12.53;;
1593;SDS011;790;47.000;16.084;2022-11-02T00:42:24;15.67;;;12.43;;
1593;SDS011;790;47.000;16.084;2022-11-02T00:44:52;13.43;;;11.63;;
1593;SDS011;790;47.000;16.084;2022-11-02T00:47:19;13.50;;;12.10;;
1593;SDS011;790;47.000;16.084;2022-11-02T00:49:46;13.13;;;11.73;;
1593;SDS011;790;47.000;16.084;2022-11-02T00:52:13;14.73;;;12.23;;
1593;SDS011;790;47.000;16.084;2022-11-02T00:54:40;13.50;;;12.10;;
1593;SDS011;790;47.000;16.084;2022-11-02T00:57:08;14.33;;;12.03;;
1593;SDS011;790;47.000;16.084;2022-11-02T00:59:36;16.00;;;12.80;;
1593;SDS011;790;47.000;16.084;2022-11-02T01:02:03;13.97;;;12.00;;
1593;SDS011;790;47.000;16.084;2022-11-02T01:04:30;14.97;;;12.17;;
1593;SDS011;790;47.000;16.084;2022-11-02T01:06:57;13.87;;;12.17;;
1593;SDS011;790;47.000;16.084;2022-11-02T01:09:24;18.43;;;13.37;;
1593;SDS011;790;47.000;16.084;2022-11-02T01:11:51;16.13;;;12.67;;
1593;SDS011;790;47.000;16.084;2022-11-02T01:14:19;16.33;;;13.27;;
1593;SDS011;790;47.000;16.084;2022-11-02T01:16:48;16.60;;;14.93;;
1593;SDS011;790;47.000;16.084;2022-11-02T01:19:15;17.70;;;14.37;;
1593;SDS011;790;47.000;16.084;2022-11-02T01:21:42;16.17;;;13.43;;
1593;SDS011;790;47.000;16.084;2022-11-02T01:24:09;18.87;;;13.47;;
1593;SDS011;790;47.000;16.084;2022-11-02T01:26:36;16.03;;;13.67;;
1593;SDS011;790;47.000;16.084;2022-11-02T01:29:03;15.23;;;13.63;;
1593;SDS011;790;47.000;16.084;2022-11-02T01:31:31;13.73;;;12.37;;
1593;SDS011;790;47.000;16.084;2022-11-02T01:34:00;14.70;;;12.70;;
1593;SDS011;790;47.000;16.084;2022-11-02T01:36:27;14.47;;;12.97;;
1593;SDS011;790;47.000;16.084;2022-11-02T01:38:54;14.53;;;13.13;;
1593;SDS011;790;47.000;16.084;2022-11-02T01:41:21;14.23;;;12.80;;
1593;SDS011;790;47.000;16.084;2022-11-02T01:43:50;14.93;;;11.77;;
1593;SDS011;790;47.000;16.084;2022-11-02T01:46:20;13.80;;;12.37;;
1593;SDS011;790;47.000;16.084;2022-11-02T01:48:51;17.77;;;13.83;;
1593;SDS011;790;47.000;16.084;2022-11-02T01:51:30;13.57;;;12.00;;
1593;SDS011;790;47.000;16.084;2022-11-02T01:54:04;16.53;;;12.77;;
1593;SDS011;790;47.000;16.084;2022-11-02T01:56:34;17.70;;;13.70;;
1593;SDS011;790;47.000;16.084;2022-11-02T01:59:05;13.93;;;12.53;;
1593;SDS011;790;47.000;16.084;2022-11-02T02:01:37;13.80;;;12.23;;
1593;SDS011;790;47.000;16.084;2022-11-02T02:04:05;14.37;;;12.90;;
1593;SDS011;790;47.000;16.084;2022-11-02T02:06:34;13.33;;;12.00;;
1593;SDS011;790;47.000;16.084;2022-11-02T02:09:02;13.30;;;12.00;;
1593;SDS011;790;47.000;16.084;2022-11-02T02:11:32;14.73;;;12.33;;
1593;SDS011;790;47.000;16.084;2022-11-02T02:14:02;13.43;;;11.63;;
1593;SDS011;790;47.000;16.084;2022-11-02T02:16:45;15.03;;;12.60;;
1593;SDS011;790;47.000;16.084;2022-11-02T02:19:35;17.70;;;13.40;;
1593;SDS011;790;47.000;16.084;2022-11-02T02:22:26;14.27;;;11.83;;
1593;SDS011;790;47.000;16.084;2022-11-02T02:25:32;15.30;;;12.37;;
1593;SDS011;790;47.000;16.084;2022-11-02T02:28:27;14.50;;;12.80;;
1593;SDS011;790;47.000;16.084;2022-11-02T02:31:00;13.57;;;12.27;;
1593;SDS011;790;47.000;16.084;2022-11-02T02:33:34;15.13;;;12.20;;
1593;SDS011;790;47.000;16.084;2022-11-02T02:36:08;15.87;;;13.00;;
1593;SDS011;790;47.000;16.084;2022-11-02T02:38:40;17.30;;;13.43;;
1593;SDS011;790;47.000;16.084;2022-11-02T02:41:11;14.97;;;13.40;;
1593;SDS011;790;47.000;16.084;2022-11-02T02:43:47;13.77;;;12.37;;
1593;SDS011;790;47.000;16.084;2022-11-02T02:46:18;14.20;;;12.20;;
1593;SDS011;790;47.000;16.084;2022-11-02T02:48:46;13.37;;;11.87;;
1593;SDS011;790;47.000;16.084;2022-11-02T02:51:17;14.20;;;12.43;;
1593;SDS011;790;47.000;16.084;2022-11-02T02:53:49;13.83;;;12.53;;
1593;SDS011;790;47.000;16.084;2022-11-02T02:56:20;14.03;;;12.17;;
1593;SDS011;790;47.000;16.084;2022-11-02T02:58:54;16.23;;;12.03;;
1593;SDS011;790;47.000;16.084;2022-11-02T03:01:25;13.63;;;11.70;;
1593;SDS011;790;47.000;16.084;2022-11-02T03:03:53;15.00;;;12.13;;
1593;SDS011;790;47.000;16.084;2022-11-02T03:06:21;13.57;;;12.10;;
1593;SDS011;790;47.000;16.084;2022-11-02T03:08:54;13.77;;;12.37;;
1593;SDS011;790;47.000;16.084;2022-11-02T03:11:28;13.83;;;11.57;;
1593;SDS011;790;47.000;16.084;2022-11-02T03:14:10;13.57;;;11.73;;
1593;SDS011;790;47.000;16.084;2022-11-02T03:16:53;12.47;;;11.27;;
1593;SDS011;790;47.000;16.084;2022-11-02T03:19:29;17.07;;;11.80;;
1593;SDS011;790;47.000;16.084;2022-11-02T03:22:04;12.03;;;10.93;;
1593;SDS011;790;47.000;16.084;2022-11-02T03:24:40;14.53;;;12.63;;
1593;SDS011;790;47.000;16.084;2022-11-02T03:27:16;13.43;;;11.70;;
1593;SDS011;790;47.000;16.084;2022-11-02T03:29:49;14.80;;;12.97;;
1593;SDS011;790;47.000;16.084;2022-11-02T03:32:22;13.77;;;12.37;;
1593;SDS011;790;47.000;16.084;2022-11-02T03:34:53;16.10;;;12.37;;
1593;SDS011;790;47.000;16.084;2022-11-02T03:37:24;13.60;;;12.20;;
1593;SDS011;790;47.000;16.084;2022-11-02T03:39:56;16.03;;;12.27;;
1593;SDS011;790;47.000;16.084;2022-11-02T03:42:29;13.60;;;12.20;;
1593;SDS011;790;47.000;16.084;2022-11-02T03:45:00;16.00;;;12.00;;
1593;SDS011;790;47.000;16.084;2022-11-02T03:47:32;16.87;;;12.60;;
1593;SDS011;790;47.000;16.084;2022-11-02T03:50:03;15.00;;;13.40;;
1593;SDS011;790;47.000;16.084;2022-11-02T03:52:33;14.90;;;13.40;;
1593;SDS011;790;47.000;16.084;2022-11-02T03:55:03;13.90;;;12.60;;
1593;SDS011;790;47.000;16.084;2022-11-02T03:57:35;13.00;;;11.67;;
1593;SDS011;790;47.000;16.084;2022-11-02T04:00:09;15.97;;;13.03;;
1593;SDS011;790;47.000;16.084;2022-11-02T04:02:39;13.27;;;11.90;;
1593;SDS011;790;47.000;16.084;2022-11-02T04:05:07;12.87;;;11.60;;
1593;SDS011;790;47.000;16.084;2022-11-02T04:07:35;14.20;;;12.70;;
1593;SDS011;790;47.000;16.084;2022-11-02T04:10:22;15.07;;;12.77;;
1593;SDS011;790;47.000;16.084;2022-11-02T04:12:49;16.00;;;13.27;;
1593;SDS011;790;47.000;16.084;2022-11-02T04:15:35;14.23;;;12.83;;
1593;SDS011;790;47.000;16.084;2022-11-02T04:18:02;13.83;;;12.33;;
1593;SDS011;790;47.000;16.084;2022-11-02T04:20:48;13.60;;;11.90;;
1593;SDS011;790;47.000;16.084;2022-11-02T04:23:15;13.83;;;12.43;;
1593;SDS011;790;47.000;16.084;2022-11-02T04:25:59;12.27;;;11.03;;
1593;SDS011;790;47.000;16.084;2022-11-02T04:28:26;11.47;;;10.17;;
1593;SDS011;790;47.000;16.084;2022-11-02T04:30:56;12.60;;;11.40;;
1593;SDS011;790;47.000;16.084;2022-11-02T04:33:24;11.83;;;10.80;;
1593;SDS011;790;47.000;16.084;2022-11-02T04:35:59;13.67;;;12.10;;
1593;SDS011;790;47.000;16.084;2022-11-02T04:38:27;14.43;;;12.30;;
1593;SDS011;790;47.000;16.084;2022-11-02T04:41:06;13.43;;;12.03;;
1593;SDS011;790;47.000;16.084;2022-11-02T04:43:51;13.07;;;11.67;;
1593;SDS011;790;47.000;16.084;2022-11-02T04:46:21;14.57;;;12.40;;
1593;SDS011;790;47.000;16.084;2022-11-02T04:48:49;13.77;;;12.27;;
1593;SDS011;790;47.000;16.084;2022-11-02T04:51:17;13.50;;;12.10;;
1593;SDS011;790;47.000;16.084;2022-11-02T04:53:45;12.27;;;11.03;;
1593;SDS011;790;47.000;16.084;2022-11-02T04:56:12;15.23;;;11.67;;
1593;SDS011;790;47.000;16.084;2022-11-02T04:58:40;14.63;;;12.37;;
1593;SDS011;790;47.000;16.084;2022-11-02T05:01:08;12.43;;;11.17;;
1593;SDS011;790;47.000;16.084;2022-11-02T05:03:40;12.53;;;11.23;;
1593;SDS011;790;47.000;16.084;2022-11-02T05:06:08;15.27;;;12.57;;
1593;SDS011;790;47.000;16.084;2022-11-02T05:08:36;16.00;;;11.70;;
1593;SDS011;790;47.000;16.084;2022-11-02T05:11:04;14.70;;;12.00;;
1593;SDS011;790;47.000;16.084;2022-11-02T05:13:31;11.83;;;10.73;;
1593;SDS011;790;47.000;16.084;2022-11-02T05:15:58;11.50;;;10.40;;
1593;SDS011;790;47.000;16.084;2022-11-02T05:18:25;12.43;;;11.23;;
1593;SDS011;790;47.000;16.084;2022-11-02T05:20:55;11.63;;;10.37;;
1593;SDS011;790;47.000;16.084;2022-11-02T05:23:24;12.70;;;11.50;;
1593;SDS011;790;47.000;16.084;2022-11-02T05:25:51;14.13;;;11.67;;
1593;SDS011;790;47.000;16.084;2022-11-02T05:28:20;12.60;;;11.13;;
1593;SDS011;790;47.000;16.084;2022-11-02T05:30:47;12.30;;;10.90;;
1593;SDS011;790;47.000;16.084;2022-11-02T05:33:15;11.73;;;10.53;;
1593;SDS011;790;47.000;16.084;2022-11-02T05:35:43;12.90;;;10.40;;
1593;SDS011;790;47.000;16.084;2022-11-02T05:38:13;12.53;;;11.20;;
1593;SDS011;790;47.000;16.084;2022-11-02T05:40:40;12.00;;;10.70;;
1593;SDS011;790;47.000;16.084;2022-11-02T05:43:07;12.43;;;11.13;;
1593;SDS011;790;47.000;16.084;2022-11-02T05:45:35;11.83;;;10.80;;
1593;SDS011;790;47.000;16.084;2022-11-02T05:48:03;14.03;;;10.87;;
1593;SDS011;790;47.000;16.084;2022-11-02T05:50:32;12.00;;;10.87;;
1593;SDS011;790;47.000;16.084;2022-11-02T05:52:59;11.33;;;10.23;;
1593;SDS011;790;47.000;16.084;2022-11-02T05:55:27;13.23;;;11.77;;
1593;SDS011;790;47.000;16.084;2022-11-02T05:57:55;12.97;;;11.87;;
1593;SDS011;790;47.000;16.084;2022-11-02T06:00:22;12.60;;;11.40;;
1593;SDS011;790;47.000;16.084;2022-11-02T06:02:54;13.67;;;12.20;;
1593;SDS011;790;47.000;16.084;2022-11-02T06:05:21;13.23;;;11.83;;
1593;SDS011;790;47.000;16.084;2022-11-02T06:07:48;15.57;;;11.73;;
1593;SDS011;790;47.000;16.084;2022-11-02T06:10:15;12.03;;;10.70;;
1593;SDS011;790;47.000;16.084;2022-11-02T06:12:45;12.27;;;11.00;;
1593;SDS011;790;47.000;16.084;2022-11-02T06:15:12;14.10;;;12.30;;
1593;SDS011;790;47.000;16.084;2022-11-02T06:17:39;13.23;;;11.93;;
1593;SDS011;790;47.000;16.084;2022-11-02T06:20:06;12.50;;;11.30;;
1593;SDS011;790;47.000;16.084;2022-11-02T06:22:37;13.70;;;12.30;;
1593;SDS011;790;47.000;16.084;2022-11-02T06:25:05;12.70;;;11.40;;
1593;SDS011;790;47.000;16.084;2022-11-02T06:27:33;13.27;;;11.97;;
1593;SDS011;790;47.000;16.084;2022-11-02T06:30:02;13.80;;;12.33;;
1593;SDS011;790;47.000;16.084;2022-11-02T06:32:30;13.90;;;12.43;;
1593;SDS011;790;47.000;16.084;2022-11-02T06:34:57;20.47;;;13.07;;
1593;SDS011;790;47.000;16.084;2022-11-02T06:37:24;16.40;;;13.57;;
1593;SDS011;790;47.000;16.084;2022-11-02T06:39:51;14.57;;;13.10;;
1593;SDS011;790;47.000;16.084;2022-11-02T06:42:18;14.20;;;12.80;;
1593;SDS011;790;47.000;16.084;2022-11-02T06:44:45;13.63;;;11.80;;
1593;SDS011;790;47.000;16.084;2022-11-02T06:47:14;14.73;;;12.57;;
1593;SDS011;790;47.000;16.084;2022-11-02T06:49:41;12.23;;;11.03;;
1593;SDS011;790;47.000;16.084;2022-11-02T06:52:08;12.97;;;11.70;;
1593;SDS011;790;47.000;16.084;2022-11-02T06:54:35;13.27;;;11.97;;
1593;SDS011;790;47.000;16.084;2022-11-02T06:57:02;13.97;;;12.37;;
1593;SDS011;790;47.000;16.084;2022-11-02T06:59:29;13.20;;;11.90;;
1593;SDS011;790;47.000;16.084;2022-11-02T07:01:56;13.23;;;11.83;;
1593;SDS011;790;47.000;16.084;2022-11-02T07:04:25;12.90;;;11.60;;
1593;SDS011;790;47.000;16.084;2022-11-02T07:06:52;14.83;;;12.63;;
1593;SDS011;790;47.000;16.084;2022-11-02T07:09:19;13.97;;;11.80;;
1593;SDS011;790;47.000;16.084;2022-11-02T07:11:47;12.50;;;11.40;;
1593;SDS011;790;47.000;16.084;2022-11-02T07:14:14;13.60;;;11.40;;
1593;SDS011;790;47.000;16.084;2022-11-02T07:16:41;12.53;;;11.27;;
1593;SDS011;790;47.000;16.084;2022-11-02T07:19:08;12.30;;;10.33;;
1593;SDS011;790;47.000;16.084;2022-11-02T07:21:36;12.77;;;11.47;;
1593;SDS011;790;47.000;16.084;2022-11-02T07:24:04;13.23;;;11.57;;
1593;SDS011;790;47.000;16.084;2022-11-02T07:26:31;12.50;;;11.20;;
1593;SDS011;790;47.000;16.084;2022-11-02T07:28:59;12.73;;;11.43;;
1593;SDS011;790;47.000;16.084;2022-11-02T07:31:26;14.40;;;12.37;;
1593;SDS011;790;47.000;16.084;2022-11-02T07:33:53;14.40;;;12.90;;
1593;SDS011;790;47.000;16.084;2022-11-02T07:36:20;15.17;;;12.27;;
1593;SDS011;790;47.000;16.084;2022-11-02T07:38:49;11.80;;;10.80;;
1593;SDS011;790;47.000;16.084;2022-11-02T07:41:16;13.53;;;12.23;;
1593;SDS011;790;47.000;16.084;2022-11-02T07:43:43;12.30;;;11.10;;
1593;SDS011;790;47.000;16.084;2022-11-02T07:46:10;10.93;;;9.93;;
1593;SDS011;790;47.000;16.084;2022-11-02T07:48:37;12.07;;;10.97;;
1593;SDS011;790;47.000;16.084;2022-11-02T07:51:04;11.87;;;10.77;;
1593;SDS011;790;47.000;16.084;2022-11-02T07:53:31;11.43;;;10.30;;
1593;SDS011;790;47.000;16.084;2022-11-02T07:56:00;12.10;;;10.90;;
1593;SDS011;790;47.000;16.084;2022-11-02T07:58:28;12.40;;;11.10;;
1593;SDS011;790;47.000;16.084;2022-11-02T08:00:56;12.00;;;10.90;;
1593;SDS011;790;47.000;16.084;2022-11-02T08:03:23;12.00;;;10.90;;
1593;SDS011;790;47.000;16.084;2022-11-02T08:05:51;12.83;;;11.53;;
1593;SDS011;790;47.000;16.084;2022-11-02T08:08:19;14.50;;;11.17;;
1593;SDS011;790;47.000;16.084;2022-11-02T08:10:48;13.63;;;11.50;;
1593;SDS011;790;47.000;16.084;2022-11-02T08:13:19;11.97;;;10.97;;
1593;SDS011;790;47.000;16.084;2022-11-02T08:15:47;12.37;;;11.20;;
1593;SDS011;790;47.000;16.084;2022-11-02T08:18:16;11.90;;;10.33;;
1593;SDS011;790;47.000;16.084;2022-11-02T08:20:44;12.27;;;11.17;;
1593;SDS011;790;47.000;16.084;2022-11-02T08:23:12;13.20;;;11.87;;
1593;SDS011;790;47.000;16.084;2022-11-02T08:25:41;11.63;;;10.63;;
1593;SDS011;790;47.000;16.084;2022-11-02T08:28:10;12.83;;;11.47;;
1593;SDS011;790;47.000;16.084;2022-11-02T08:30:40;14.50;;;12.63;;
1593;SDS011;790;47.000;16.084;2022-11-02T08:33:09;13.63;;;11.80;;
1593;SDS011;790;47.000;16.084;2022-11-02T08:35:40;14.60;;;12.03;;
1593;SDS011;790;47.000;16.084;2022-11-02T08:38:07;13.47;;;11.13;;
1593;SDS011;790;47.000;16.084;2022-11-02T08:40:35;15.50;;;12.57;;
1593;SDS011;790;47.000;16.084;2022-11-02T08:43:04;12.93;;;11.63;;
1593;SDS011;790;47.000;16.084;2022-11-02T08:45:32;11.50;;;10.40;;
1593;SDS011;790;47.000;16.084;2022-11-02T08:48:02;10.73;;;9.73;;
1593;SDS011;790;47.000;16.084;2022-11-02T08:50:30;10.50;;;9.60;;
1593;SDS011;790;47.000;16.084;2022-11-02T08:52:57;11.07;;;9.93;;
1593;SDS011;790;47.000;16.084;2022-11-02T08:55:24;10.53;;;9.33;;
1593;SDS011;790;47.000;16.084;2022-11-02T08:57:52;10.67;;;9.57;;
1593;SDS011;790;47.000;16.084;2022-11-02T09:00:22;10.47;;;9.60;;
1593;SDS011;790;47.000;16.084;2022-11-02T09:02:57;9.80;;;8.90;;
1593;SDS011;790;47.000;16.084;2022-11-02T09:05:27;11.33;;;9.00;;
1593;SDS011;790;47.000;16.084;2022-11-02T09:07:55;11.07;;;7.80;;
1593;SDS011;790;47.000;16.084;2022-11-02T09:10:23;8.80;;;7.90;;
1593;SDS011;790;47.000;16.084;2022-11-02T09:12:51;7.97;;;7.27;;
1593;SDS011;790;47.000;16.084;2022-11-02T09:15:18;8.60;;;7.80;;
1593;SDS011;790;47.000;16.084;2022-11-02T09:17:46;9.33;;;6.87;;
1593;SDS011;790;47.000;16.084;2022-11-02T09:20:13;8.23;;;6.93;;
1593;SDS011;790;47.000;16.084;2022-11-02T09:22:43;8.30;;;7.57;;
1593;SDS011;790;47.000;16.084;2022-11-02T09:25:10;10.03;;;7.40;;
1593;SDS011;790;47.000;16.084;2022-11-02T09:27:38;9.17;;;7.17;;
1593;SDS011;790;47.000;16.084;2022-11-02T09:30:06;9.10;;;6.93;;
1593;SDS011;790;47.000;16.084;2022-11-02T09:32:34;8.70;;;7.00;;
1593;SDS011;790;47.000;16.084;2022-11-02T09:35:02;7.20;;;6.13;;
1593;SDS011;790;47.000;16.084;2022-11-02T09:37:31;7.00;;;6.40;;
1593;SDS011;790;47.000;16.084;2022-11-02T09:40:00;6.70;;;6.00;;
1593;SDS011;790;47.000;16.084;2022-11-02T09:42:28;7.30;;;6.03;;
1593;SDS011;790;47.000;16.084;2022-11-02T09:45:02;9.60;;;6.27;;
1593;SDS011;790;47.000;16.084;2022-11-02T09:47:32;6.83;;;6.20;;
1593;SDS011;790;47.000;16.084;2022-11-02T09:50:08;6.97;;;6.27;;
1593;SDS011;790;47.000;16.084;2022-11-02T09:52:41;7.25;;;6.28;;
1593;SDS011;790;47.000;16.084;2022-11-02T09:55:14;8.27;;;6.80;;
1593;SDS011;790;47.000;16.084;2022-11-02T09:57:44;10.10;;;6.90;;
1593;SDS011;790;47.000;16.084;2022-11-02T10:00:16;10.20;;;7.88;;
1593;SDS011;790;47.000;16.084;2022-11-02T10:02:46;9.07;;;7.22;;
1593;SDS011;790;47.000;16.084;2022-11-02T10:05:26;7.82;;;6.88;;
1593;SDS011;790;47.000;16.084;2022-11-02T10:11:00;9.32;;;7.05;;
1593;SDS011;790;47.000;16.084;2022-11-02T10:13:36;7.10;;;6.40;;
1593;SDS011;790;47.000;16.084;2022-11-02T10:16:09;7.47;;;6.55;;
1593;SDS011;790;47.000;16.084;2022-11-02T10:18:40;9.48;;;6.63;;
1593;SDS011;790;47.000;16.084;2022-11-02T10:21:15;10.32;;;7.10;;
1593;SDS011;790;47.000;16.084;2022-11-02T10:23:46;8.70;;;7.15;;
1593;SDS011;790;47.000;16.084;2022-11-02T10:26:20;7.55;;;6.85;;
1593;SDS011;790;47.000;16.084;2022-11-02T10:28:50;7.47;;;6.78;;
1593;SDS011;790;47.000;16.084;2022-11-02T10:31:24;8.88;;;6.50;;
1593;SDS011;790;47.000;16.084;2022-11-02T10:33:55;8.48;;;7.07;;
1593;SDS011;790;47.000;16.084;2022-11-02T10:36:31;10.70;;;7.22;;
1593;SDS011;790;47.000;16.084;2022-11-02T10:39:12;9.57;;;7.05;;
1593;SDS011;790;47.000;16.084;2022-11-02T10:41:51;9.23;;;6.80;;
1593;SDS011;790;47.000;16.084;2022-11-02T10:47:49;6.75;;;6.05;;
1593;SDS011;790;47.000;16.084;2022-11-02T10:50:35;9.68;;;7.20;;
1593;SDS011;790;47.000;16.084;2022-11-02T10:53:13;8.02;;;6.47;;
1593;SDS011;790;47.000;16.084;2022-11-02T10:55:42;7.25;;;6.38;;
1593;SDS011;790;47.000;16.084;2022-11-02T10:58:19;7.82;;;6.93;;
1593;SDS011;790;47.000;16.084;2022-11-02T11:00:47;7.70;;;6.97;;
1593;SDS011;790;47.000;16.084;2022-11-02T11:03:16;10.00;;;7.30;;
1593;SDS011;790;47.000;16.084;2022-11-02T11:05:54;9.85;;;7.40;;
1593;SDS011;790;47.000;16.084;2022-11-02T11:08:26;8.88;;;7.32;;
1593;SDS011;790;47.000;16.084;2022-11-02T11:11:08;9.82;;;7.55;;
1593;SDS011;790;47.000;16.084;2022-11-02T11:13:38;8.48;;;7.30;;
1593;SDS011;790;47.000;16.084;2022-11-02T11:16:07;8.02;;;7.25;;
1593;SDS011;790;47.000;16.084;2022-11-02T11:18:36;9.23;;;7.07;;
1593;SDS011;790;47.000;16.084;2022-11-02T11:21:04;7.90;;;6.38;;
1593;SDS011;790;47.000;16.084;2022-11-02T11:23:32;7.72;;;6.75;;
1593;SDS011;790;47.000;16.084;2022-11-02T11:26:00;7.70;;;6.90;;
1593;SDS011;790;47.000;16.084;2022-11-02T11:28:29;7.47;;;6.72;;
1593;SDS011;790;47.000;16.084;2022-11-02T11:31:07;8.65;;;7.45;;
1593;SDS011;790;47.000;16.084;2022-11-02T11:33:43;8.77;;;7.53;;
1593;SDS011;790;47.000;16.084;2022-11-02T11:36:22;10.57;;;6.85;;
1593;SDS011;790;47.000;16.084;2022-11-02T11:38:51;7.07;;;6.38;;
1593;SDS011;790;47.000;16.084;2022-11-02T11:41:20;9.57;;;6.65;;
1593;SDS011;790;47.000;16.084;2022-11-02T11:43:48;7.82;;;6.65;;
1593;SDS011;790;47.000;16.084;2022-11-02T11:46:18;9.80;;;7.07;;
1593;SDS011;790;47.000;16.084;2022-11-02T11:48:47;9.05;;;6.70;;
1593;SDS011;790;47.000;16.084;2022-11-02T11:51:24;8.35;;;7.18;;
1593;SDS011;790;47.000;16.084;2022-11-02T11:56:53;7.80;;;6.80;;
1593;SDS011;790;47.000;16.084;2022-11-02T11:59:23;10.23;;;7.47;;
1593;SDS011;790;47.000;16.084;2022-11-02T12:01:54;10.80;;;7.32;;
1593;SDS011;790;47.000;16.084;2022-11-02T12:04:29;7.65;;;7.03;;
1593;SDS011;790;47.000;16.084;2022-11-02T12:07:07;9.05;;;7.78;;
1593;SDS011;790;47.000;16.084;2022-11-02T12:09:51;10.68;;;8.30;;
1593;SDS011;790;47.000;16.084;2022-11-02T12:12:31;8.57;;;7.20;;
1593;SDS011;790;47.000;16.084;2022-11-02T12:15:11;10.35;;;6.70;;
1593;SDS011;790;47.000;16.084;2022-11-02T12:17:50;7.90;;;6.63;;
1593;SDS011;790;47.000;16.084;2022-11-02T12:20:34;11.85;;;6.95;;
1593;SDS011;790;47.000;16.084;2022-11-02T12:23:21;7.97;;;6.60;;
1593;SDS011;790;47.000;16.084;2022-11-02T12:26:05;10.07;;;6.70;;
1593;SDS011;790;47.000;16.084;2022-11-02T12:28:42;11.93;;;6.93;;
1593;SDS011;790;47.000;16.084;2022-11-02T12:31:18;7.10;;;5.85;;
1593;SDS011;790;47.000;16.084;2022-11-02T12:34:02;7.28;;;6.40;;
1593;SDS011;790;47.000;16.084;2022-11-02T12:36:49;8.85;;;5.85;;
1593;SDS011;790;47.000;16.084;2022-11-02T12:39:29;7.80;;;5.97;;
1593;SDS011;790;47.000;16.084;2022-11-02T12:42:10;6.88;;;6.13;;
1593;SDS011;790;47.000;16.084;2022-11-02T12:44:47;6.82;;;6.22;;
1593;SDS011;790;47.000;16.084;2022-11-02T12:47:40;7.68;;;6.45;;
1593;SDS011;790;47.000;16.084;2022-11-02T12:50:20;8.90;;;6.55;;
1593;SDS011;790;47.000;16.084;2022-11-02T12:52:58;8.82;;;6.50;;
1593;SDS011;790;47.000;16.084;2022-11-02T12:55:35;8.70;;;6.53;;
1593;SDS011;790;47.000;16.084;2022-11-02T12:58:12;7.68;;;6.53;;
1593;SDS011;790;47.000;16.084;2022-11-02T13:00:43;8.80;;;6.28;;
1593;SDS011;790;47.000;16.084;2022-11-02T13:03:18;7.78;;;6.10;;
1593;SDS011;790;47.000;16.084;2022-11-02T13:05:57;8.65;;;5.40;;
1593;SDS011;790;47.000;16.084;2022-11-02T13:08:32;9.73;;;6.18;;
1593;SDS011;790;47.000;16.084;2022-11-02T13:11:05;10.55;;;5.63;;
1593;SDS011;790;47.000;16.084;2022-11-02T13:13:38;8.77;;;6.00;;
1593;SDS011;790;47.000;16.084;2022-11-02T13:16:10;6.05;;;5.45;;
1593;SDS011;790;47.000;16.084;2022-11-02T13:18:40;7.80;;;5.28;;
1593;SDS011;790;47.000;16.084;2022-11-02T13:21:13;6.20;;;5.60;;
1593;SDS011;790;47.000;16.084;2022-11-02T13:23:46;7.60;;;5.47;;
1593;SDS011;790;47.000;16.084;2022-11-02T13:26:22;9.52;;;5.28;;
1593;SDS011;790;47.000;16.084;2022-11-02T13:28:53;7.50;;;5.70;;
1593;SDS011;790;47.000;16.084;2022-11-02T13:31:27;6.38;;;5.68;;
1593;SDS011;790;47.000;16.084;2022-11-02T13:33:59;11.30;;;8.05;;
1593;SDS011;790;47.000;16.084;2022-11-02T13:36:30;14.95;;;11.88;;
1593;SDS011;790;47.000;16.084;2022-11-02T13:39:02;13.00;;;9.57;;
1593;SDS011;790;47.000;16.084;2022-11-02T13:41:45;14.05;;;8.57;;
1593;SDS011;790;47.000;16.084;2022-11-02T13:44:50;16.63;;;12.43;;
1593;SDS011;790;47.000;16.084;2022-11-02T13:47:42;17.95;;;12.73;;
1593;SDS011;790;47.000;16.084;2022-11-02T13:50:32;14.30;;;12.18;;
1593;SDS011;790;47.000;16.084;2022-11-02T13:53:06;16.08;;;12.48;;
1593;SDS011;790;47.000;16.084;2022-11-02T13:55:39;10.52;;;8.27;;
1593;SDS011;790;47.000;16.084;2022-11-02T13:58:14;10.15;;;8.82;;
1593;SDS011;790;47.000;16.084;2022-11-02T14:00:47;9.23;;;8.43;;
1593;SDS011;790;47.000;16.084;2022-11-02T14:03:16;13.68;;;10.95;;
1593;SDS011;790;47.000;16.084;2022-11-02T14:05:47;23.70;;;18.55;;
1593;SDS011;790;47.000;16.084;2022-11-02T14:08:21;15.23;;;12.68;;
1593;SDS011;790;47.000;16.084;2022-11-02T14:16:43;8.25;;;7.35;;
1593;SDS011;790;47.000;16.084;2022-11-02T14:19:23;13.15;;;8.90;;
1593;SDS011;790;47.000;16.084;2022-11-02T14:22:09;11.07;;;9.10;;
1593;SDS011;790;47.000;16.084;2022-11-02T14:25:11;8.82;;;7.53;;
1593;SDS011;790;47.000;16.084;2022-11-02T14:27:41;10.93;;;8.13;;
1593;SDS011;790;47.000;16.084;2022-11-02T14:36:21;12.32;;;6.43;;
1593;SDS011;790;47.000;16.084;2022-11-02T14:38:58;12.07;;;6.90;;
1593;SDS011;790;47.000;16.084;2022-11-02T14:41:56;10.55;;;6.95;;
1593;SDS011;790;47.000;16.084;2022-11-02T14:44:39;8.80;;;6.20;;
1593;SDS011;790;47.000;16.084;2022-11-02T14:47:25;7.53;;;5.88;;
1593;SDS011;790;47.000;16.084;2022-11-02T14:49:55;9.43;;;6.40;;
1593;SDS011;790;47.000;16.084;2022-11-02T14:52:29;12.55;;;6.60;;
1593;SDS011;790;47.000;16.084;2022-11-02T14:55:00;15.00;;;6.97;;
1593;SDS011;790;47.000;16.084;2022-11-02T14:57:32;15.35;;;6.35;;
1593;SDS011;790;47.000;16.084;2022-11-02T15:00:03;44.38;;;10.43;;
1593;SDS011;790;47.000;16.084;2022-11-02T15:02:42;168.98;;;22.23;;
1593;SDS011;790;47.000;16.084;2022-11-02T15:05:18;132.32;;;20.00;;
1593;SDS011;790;47.000;16.084;2022-11-02T15:07:49;270.23;;;31.85;;
1593;SDS011;790;47.000;16.084;2022-11-02T15:10:36;539.58;;;59.10;;
1593;SDS011;790;47.000;16.084;2022-11-02T15:16:22;217.48;;;29.50;;
1593;SDS011;790;47.000;16.084;2022-11-02T15:18:50;124.95;;;18.48;;
1593;SDS011;790;47.000;16.084;2022-11-02T15:21:23;35.70;;;9.13;;
1593;SDS011;790;47.000;16.084;2022-11-02T15:26:43;13.07;;;6.28;;
1593;SDS011;790;47.000;16.084;2022-11-02T15:32:02;6.93;;;5.65;;
1593;SDS011;790;47.000;16.084;2022-11-02T15:34:34;8.25;;;5.55;;
1593;SDS011;790;47.000;16.084;2022-11-02T15:37:04;7.78;;;5.38;;
1593;SDS011;790;47.000;16.084;2022-11-02T15:39:33;11.52;;;5.88;;
1593;SDS011;790;47.000;16.084;2022-11-02T15:42:02;9.70;;;5.97;;
1593;SDS011;790;47.000;16.084;2022-11-02T15:47:57;10.52;;;6.35;;
1593;SDS011;790;47.000;16.084;2022-11-02T15:50:39;8.07;;;5.65;;
1593;SDS011;790;47.000;16.084;2022-11-02T15:53:20;9.55;;;5.45;;
1593;SDS011;790;47.000;16.084;2022-11-02T15:56:07;6.97;;;6.20;;